createdAt,value
2024-05-09T00:00:36.173Z,8.37
2024-05-09T00:03:06.458Z,8.31
2024-05-09T00:05:33.006Z,8.20
2024-05-09T00:07:59.754Z,8.05
2024-05-09T00:10:34.610Z,8.05
2024-05-09T00:13:04.114Z,8.01
2024-05-09T00:15:30.612Z,7.93
2024-05-09T00:17:57.333Z,7.98
2024-05-09T00:20:28.623Z,7.95
2024-05-09T00:23:02.853Z,8.13
2024-05-09T00:25:29.385Z,8.16
2024-05-09T00:27:55.840Z,8.17
2024-05-09T00:30:31.475Z,8.23
2024-05-09T00:33:01.761Z,8.06
2024-05-09T00:35:28.600Z,7.93
2024-05-09T00:37:55.323Z,7.93
2024-05-09T00:40:30.874Z,7.97
2024-05-09T00:43:05.620Z,7.98
2024-05-09T00:45:33.985Z,7.94
2024-05-09T00:48:03.255Z,7.94
2024-05-09T00:50:36.134Z,7.87
2024-05-09T00:53:06.845Z,7.86
2024-05-09T00:55:35.867Z,7.83
2024-05-09T00:58:05.928Z,7.78
2024-05-09T01:00:38.839Z,7.81
2024-05-09T01:03:12.532Z,7.75
2024-05-09T01:05:41.317Z,7.65
2024-05-09T01:08:08.929Z,7.38
2024-05-09T01:10:36.957Z,7.40
2024-05-09T01:13:07.307Z,7.38
2024-05-09T01:15:35.325Z,7.33
2024-05-09T01:18:11.510Z,7.40
2024-05-09T01:20:42.501Z,7.36
2024-05-09T01:23:15.914Z,7.34
2024-05-09T01:25:47.110Z,7.37
2024-05-09T01:28:14.010Z,7.30
2024-05-09T01:30:40.562Z,7.43
2024-05-09T01:33:09.435Z,7.40
2024-05-09T01:35:37.813Z,7.28
2024-05-09T01:38:04.857Z,7.22
2024-05-09T01:43:00.993Z,7.00
2024-05-09T01:45:27.424Z,6.82
2024-05-09T01:47:54.155Z,6.84
2024-05-09T01:50:33.032Z,6.86
2024-05-09T01:53:04.236Z,6.83
2024-05-09T01:55:30.773Z,6.89
2024-05-09T01:57:57.279Z,6.94
2024-05-09T02:00:33.752Z,6.86
2024-05-09T02:03:15.267Z,6.86
2024-05-09T02:05:52.006Z,6.86
2024-05-09T02:08:20.139Z,6.99
2024-05-09T02:10:48.032Z,7.07
2024-05-09T02:13:15.594Z,7.02
2024-05-09T02:15:42.458Z,6.92
2024-05-09T02:18:09.328Z,6.95
2024-05-09T02:20:38.865Z,6.96
2024-05-09T02:23:09.297Z,6.93
2024-05-09T02:25:35.973Z,6.94
2024-05-09T02:28:02.746Z,7.02
2024-05-09T02:30:38.457Z,6.95
2024-05-09T02:33:16.912Z,6.88
2024-05-09T02:35:46.227Z,6.82
2024-05-09T02:38:13.234Z,6.73
2024-05-09T02:40:40.662Z,6.58
2024-05-09T02:43:12.532Z,6.55
2024-05-09T02:45:40.411Z,6.50
2024-05-09T02:48:10.271Z,6.36
2024-05-09T02:50:39.438Z,6.36
2024-05-09T02:53:08.263Z,6.37
2024-05-09T02:55:35.293Z,6.29
2024-05-09T02:58:03.114Z,6.36
2024-05-09T03:00:38.075Z,6.23
2024-05-09T03:03:08.571Z,6.42
2024-05-09T03:05:36.621Z,6.45
2024-05-09T03:08:03.823Z,6.42
2024-05-09T03:10:35.934Z,6.41
2024-05-09T03:13:13.556Z,6.27
2024-05-09T03:15:41.540Z,6.20
2024-05-09T03:18:09.063Z,6.16
2024-05-09T03:20:36.943Z,6.18
2024-05-09T03:23:05.376Z,6.23
2024-05-09T03:25:32.451Z,6.29
2024-05-09T03:27:59.084Z,6.23
2024-05-09T03:30:34.619Z,6.20
2024-05-09T03:33:14.042Z,6.18
2024-05-09T03:35:41.680Z,6.18
2024-05-09T03:38:08.289Z,6.40
2024-05-09T03:40:35.071Z,6.31
2024-05-09T03:43:01.581Z,6.27
2024-05-09T03:45:28.090Z,6.25
2024-05-09T03:47:54.807Z,6.28
2024-05-09T03:50:29.551Z,6.19
2024-05-09T03:53:01.001Z,6.08
2024-05-09T03:55:27.876Z,6.09
2024-05-09T03:57:54.362Z,6.05
2024-05-09T04:00:35.772Z,6.14
2024-05-09T04:03:12.829Z,6.10
2024-05-09T04:05:41.898Z,6.10
2024-05-09T04:08:10.093Z,6.07
2024-05-09T04:10:39.750Z,6.14
2024-05-09T04:13:06.302Z,6.20
2024-05-09T04:15:32.965Z,6.22
2024-05-09T04:17:59.796Z,6.14
2024-05-09T04:22:58.663Z,6.18
2024-05-09T04:25:25.208Z,6.26
2024-05-09T04:27:54.303Z,6.22
2024-05-09T04:30:30.190Z,6.27
2024-05-09T04:33:03.328Z,6.25
2024-05-09T04:35:29.990Z,6.07
2024-05-09T04:37:56.550Z,6.30
2024-05-09T04:40:30.788Z,6.37
2024-05-09T04:43:00.483Z,6.41
2024-05-09T04:45:27.114Z,6.40
2024-05-09T04:47:58.969Z,6.52
2024-05-09T04:50:34.205Z,6.64
2024-05-09T04:53:05.326Z,6.56
2024-05-09T04:55:35.735Z,6.79
2024-05-09T04:58:02.252Z,6.81
2024-05-09T05:00:36.388Z,6.88
2024-05-09T05:03:07.864Z,7.02
2024-05-09T05:05:38.128Z,7.18
2024-05-09T05:08:05.492Z,7.28
2024-05-09T05:10:37.008Z,7.25
2024-05-09T05:13:04.126Z,7.37
2024-05-09T05:15:30.700Z,7.66
2024-05-09T05:17:57.256Z,7.68
2024-05-09T05:20:30.959Z,7.97
2024-05-09T05:23:00.488Z,7.97
2024-05-09T05:25:27.233Z,8.09
2024-05-09T05:27:53.727Z,8.35
2024-05-09T05:30:29.082Z,8.22
2024-05-09T05:33:03.799Z,8.63
2024-05-09T05:35:30.688Z,8.84
2024-05-09T05:38:02.312Z,8.85
2024-05-09T05:40:36.579Z,9.11
2024-05-09T05:43:08.377Z,9.06
2024-05-09T05:45:38.583Z,9.08
2024-05-09T05:48:35.544Z,9.36
2024-05-09T05:51:12.570Z,9.94
2024-05-09T05:53:41.714Z,10.08
2024-05-09T05:56:11.721Z,10.17
2024-05-09T05:58:38.261Z,10.27
2024-05-09T06:01:05.204Z,10.54
2024-05-09T06:03:31.932Z,10.49
2024-05-09T06:06:05.194Z,10.73
2024-05-09T06:08:31.882Z,11.31
2024-05-09T06:10:58.460Z,11.92
2024-05-09T06:13:25.048Z,12.35
2024-05-09T06:15:51.553Z,12.46
2024-05-09T06:18:30.554Z,12.71
2024-05-09T06:20:57.388Z,13.13
2024-05-09T06:23:26.990Z,13.50
2024-05-09T06:25:53.574Z,13.66
2024-05-09T06:28:20.125Z,13.85
2024-05-09T06:30:46.584Z,14.17
2024-05-09T06:33:15.608Z,14.21
2024-05-09T06:35:47.028Z,14.94
2024-05-09T06:38:14.555Z,15.31
2024-05-09T06:40:43.269Z,15.19
2024-05-09T06:43:16.316Z,15.27
2024-05-09T06:45:47.364Z,15.29
2024-05-09T06:48:14.608Z,15.49
2024-05-09T06:50:41.516Z,15.41
2024-05-09T06:53:08.636Z,15.36
2024-05-09T06:55:35.984Z,15.50
2024-05-09T06:58:05.503Z,16.57
2024-05-09T07:00:38.607Z,16.34
2024-05-09T07:03:12.915Z,16.12
2024-05-09T07:05:41.797Z,16.57
2024-05-09T07:08:08.440Z,17.26
2024-05-09T07:10:36.566Z,16.66
2024-05-09T07:13:08.134Z,17.09
2024-05-09T07:15:37.389Z,17.58
2024-05-09T07:18:10.865Z,17.09
2024-05-09T07:20:38.609Z,17.61
2024-05-09T07:23:06.837Z,17.93
2024-05-09T07:25:36.935Z,18.25
2024-05-09T07:28:05.160Z,18.53
2024-05-09T07:30:34.372Z,18.45
2024-05-09T07:33:03.033Z,18.21
2024-05-09T07:35:30.647Z,19.36
2024-05-09T07:37:57.607Z,19.68
2024-05-09T07:40:32.258Z,19.71
2024-05-09T07:43:09.400Z,20.00
2024-05-09T07:45:48.611Z,20.02
2024-05-09T07:52:37.564Z,19.90
2024-05-09T07:53:47.811Z,20.51
2024-05-09T07:56:18.576Z,20.66
2024-05-09T07:58:46.244Z,21.23
2024-05-09T08:01:15.192Z,21.58
2024-05-09T08:03:42.160Z,21.46
2024-05-09T08:06:08.796Z,21.84
2024-05-09T08:08:35.324Z,21.42
2024-05-09T08:11:02.805Z,22.09
2024-05-09T08:13:29.401Z,22.25
2024-05-09T08:15:58.992Z,22.37
2024-05-09T08:18:28.001Z,22.73
2024-05-09T08:20:55.730Z,22.59
2024-05-09T08:23:24.846Z,22.78
2024-05-09T08:25:51.447Z,23.35
2024-05-09T08:28:21.118Z,24.00
2024-05-09T08:30:47.884Z,23.15
2024-05-09T08:33:14.630Z,23.36
2024-05-09T08:35:41.259Z,24.02
2024-05-09T08:38:11.008Z,24.55
2024-05-09T08:40:42.910Z,24.82
2024-05-09T08:43:13.323Z,24.69
2024-05-09T08:45:50.163Z,25.24
2024-05-09T08:48:19.667Z,23.87
2024-05-09T08:50:52.161Z,24.67
2024-05-09T08:53:21.815Z,25.55
2024-05-09T08:55:54.212Z,25.81
2024-05-09T08:58:21.315Z,25.94
2024-05-09T09:00:49.184Z,25.97
2024-05-09T09:03:24.034Z,26.10
2024-05-09T09:06:08.682Z,26.57
2024-05-09T09:08:41.558Z,26.21
2024-05-09T09:11:08.089Z,26.31
2024-05-09T09:13:37.153Z,26.29
2024-05-09T09:16:13.132Z,25.26
2024-05-09T09:18:44.247Z,26.05
2024-05-09T09:21:10.999Z,26.42
2024-05-09T09:23:39.590Z,27.07
2024-05-09T09:26:06.117Z,27.52
2024-05-09T09:28:36.883Z,27.87
2024-05-09T09:31:03.982Z,27.80
2024-05-09T09:33:43.010Z,28.04
2024-05-09T09:36:11.602Z,27.61
2024-05-09T09:38:39.674Z,27.29
2024-05-09T09:41:10.185Z,26.97
2024-05-09T09:43:37.094Z,27.70
2024-05-09T09:46:11.770Z,28.24
2024-05-09T09:48:40.600Z,28.06
2024-05-09T09:51:08.041Z,27.76
2024-05-09T09:53:34.992Z,26.61
2024-05-09T09:56:03.136Z,25.96
2024-05-09T09:58:32.677Z,26.70
2024-05-09T10:00:59.297Z,27.38
2024-05-09T10:03:26.644Z,27.09
2024-05-09T10:05:57.001Z,27.70
2024-05-09T10:08:24.292Z,28.02
2024-05-09T10:10:54.168Z,28.05
2024-05-09T10:13:21.029Z,28.47
2024-05-09T10:15:52.637Z,29.27
2024-05-09T10:18:19.947Z,29.84
2024-05-09T10:20:46.844Z,29.17
2024-05-09T10:23:27.339Z,29.36
2024-05-09T10:26:02.073Z,28.77
2024-05-09T10:28:29.825Z,29.07
2024-05-09T10:31:09.481Z,29.15
2024-05-09T10:33:50.151Z,29.03
2024-05-09T10:36:23.026Z,27.43
2024-05-09T10:38:50.369Z,27.47
2024-05-09T10:41:20.668Z,27.85
2024-05-09T10:43:47.772Z,27.19
2024-05-09T10:46:14.941Z,26.92
2024-05-09T10:48:44.175Z,28.71
2024-05-09T10:51:11.691Z,29.64
2024-05-09T10:53:46.053Z,28.50
2024-05-09T10:56:16.813Z,28.89
2024-05-09T10:58:43.381Z,29.69
2024-05-09T11:01:10.976Z,29.69
2024-05-09T11:03:38.792Z,30.62
2024-05-09T11:06:08.658Z,31.19
2024-05-09T11:08:36.255Z,30.57
2024-05-09T11:11:05.788Z,30.58
2024-05-09T11:13:33.870Z,30.05
2024-05-09T11:16:01.087Z,29.03
2024-05-09T11:18:33.466Z,29.26
2024-05-09T11:21:02.928Z,29.39
2024-05-09T11:23:29.471Z,28.97
2024-05-09T11:25:57.711Z,27.90
2024-05-09T11:28:26.806Z,28.17
2024-05-09T11:31:05.172Z,28.25
2024-05-09T11:33:31.889Z,26.88
2024-05-09T11:35:58.545Z,26.35
2024-05-09T11:38:25.144Z,26.98
2024-05-09T11:40:53.922Z,27.89
2024-05-09T11:43:20.533Z,27.88
2024-05-09T11:45:47.179Z,28.59
2024-05-09T11:48:13.885Z,26.95
2024-05-09T11:50:42.042Z,25.77
2024-05-09T11:53:08.575Z,26.52
2024-05-09T11:55:35.158Z,26.07
2024-05-09T11:58:06.053Z,25.72
2024-05-09T12:00:37.548Z,24.76
2024-05-09T12:03:05.884Z,23.33
2024-05-09T12:05:34.309Z,22.89
2024-05-09T12:08:01.659Z,22.25
2024-05-09T12:10:34.766Z,22.04
2024-05-09T12:13:04.924Z,22.17
2024-05-09T12:15:33.160Z,22.16
2024-05-09T12:18:02.742Z,22.21
2024-05-09T12:20:36.704Z,22.41
2024-05-09T12:23:09.742Z,22.26
2024-05-09T12:25:37.154Z,22.30
2024-05-09T12:28:03.982Z,22.28
2024-05-09T12:30:36.703Z,22.36
2024-05-09T12:33:14.936Z,22.07
2024-05-09T12:35:44.401Z,22.67
2024-05-09T12:38:13.984Z,22.90
2024-05-09T12:40:40.505Z,23.02
2024-05-09T12:43:11.371Z,22.35
2024-05-09T12:45:47.475Z,22.39
2024-05-09T12:48:16.909Z,22.04
2024-05-09T12:50:44.216Z,22.30
2024-05-09T12:53:11.138Z,21.80
2024-05-09T12:55:44.764Z,21.84
2024-05-09T12:58:22.116Z,22.03
2024-05-09T13:00:51.959Z,22.09
2024-05-09T13:03:18.736Z,21.86
2024-05-09T13:05:48.264Z,22.07
2024-05-09T13:08:25.946Z,22.54
2024-05-09T13:10:52.513Z,21.98
2024-05-09T13:13:19.259Z,22.00
2024-05-09T13:15:46.378Z,21.66
2024-05-09T13:18:21.829Z,21.63
2024-05-09T13:20:51.337Z,21.56
2024-05-09T13:23:17.821Z,21.90
2024-05-09T13:25:47.407Z,22.16
2024-05-09T13:28:17.210Z,22.13
2024-05-09T13:30:43.952Z,22.49
2024-05-09T13:33:12.171Z,22.34
2024-05-09T13:35:47.069Z,21.81
2024-05-09T13:38:21.091Z,21.98
2024-05-09T13:40:48.456Z,21.18
2024-05-09T13:43:15.488Z,21.16
2024-05-09T13:45:42.162Z,21.20
2024-05-09T13:48:09.246Z,21.27
2024-05-09T13:50:36.976Z,21.33
2024-05-09T13:53:06.568Z,20.98
2024-05-09T13:55:34.503Z,20.64
2024-05-09T13:58:01.784Z,20.46
2024-05-09T14:00:41.715Z,20.48
2024-05-09T14:03:14.600Z,20.51
2024-05-09T14:05:41.698Z,20.57
2024-05-09T14:08:08.655Z,20.33
2024-05-09T14:10:35.473Z,20.16
2024-05-09T14:13:02.126Z,20.39
2024-05-09T14:15:28.734Z,20.11
2024-05-09T14:17:58.261Z,20.15
2024-05-09T14:20:31.010Z,20.06
2024-05-09T14:23:00.582Z,20.31
2024-05-09T14:25:28.288Z,20.37
2024-05-09T14:27:58.230Z,20.25
2024-05-09T14:30:33.943Z,20.16
2024-05-09T14:33:11.030Z,20.74
2024-05-09T14:35:38.739Z,20.88
2024-05-09T14:38:07.708Z,20.84
2024-05-09T14:40:41.263Z,21.14
2024-05-09T14:43:15.249Z,21.32
2024-05-09T14:45:43.391Z,21.21
2024-05-09T14:48:11.546Z,20.92
2024-05-09T14:50:40.092Z,20.96
2024-05-09T14:53:09.364Z,20.95
2024-05-09T14:55:37.738Z,21.06
2024-05-09T14:58:09.238Z,20.83
2024-05-09T15:00:42.320Z,20.56
2024-05-09T15:03:13.716Z,20.70
2024-05-09T15:05:40.671Z,20.74
2024-05-09T15:08:11.536Z,20.76
2024-05-09T15:10:38.182Z,20.78
2024-05-09T15:13:07.195Z,21.04
2024-05-09T15:15:35.458Z,20.78
2024-05-09T15:19:23.132Z,20.71
2024-05-09T15:21:32.718Z,20.82
2024-05-09T15:23:59.410Z,21.16
2024-05-09T15:26:29.581Z,21.23
2024-05-09T15:28:57.526Z,20.51
2024-05-09T15:31:24.471Z,20.56
2024-05-09T15:33:54.150Z,20.37
2024-05-09T15:36:21.094Z,20.75
2024-05-09T15:38:50.300Z,20.86
2024-05-09T15:41:16.914Z,20.27
2024-05-09T15:43:43.384Z,20.56
2024-05-09T15:46:10.727Z,20.83
2024-05-09T15:48:38.724Z,20.48
2024-05-09T15:51:09.028Z,20.40
2024-05-09T15:53:35.692Z,20.97
2024-05-09T15:56:02.315Z,20.93
2024-05-09T15:58:28.909Z,20.57
2024-05-09T16:00:55.772Z,20.65
2024-05-09T16:03:31.374Z,20.67
2024-05-09T16:05:58.239Z,20.86
2024-05-09T16:08:24.866Z,20.47
2024-05-09T16:10:51.574Z,20.58
2024-05-09T16:13:18.468Z,20.43
2024-05-09T16:15:46.022Z,20.36
2024-05-09T16:18:13.130Z,19.46
2024-05-09T16:20:42.143Z,19.43
2024-05-09T16:23:10.886Z,19.20
2024-05-09T16:25:46.435Z,19.35
2024-05-09T16:28:13.270Z,19.04
2024-05-09T16:30:43.044Z,19.32
2024-05-09T16:33:12.842Z,19.18
2024-05-09T16:35:40.028Z,19.20
2024-05-09T16:38:07.085Z,19.01
2024-05-09T16:40:38.655Z,18.94
2024-05-09T16:43:08.715Z,18.87
2024-05-09T16:45:36.177Z,18.74
2024-05-09T16:48:03.292Z,18.69
2024-05-09T16:50:33.561Z,18.77
2024-05-09T16:53:02.704Z,19.23
2024-05-09T16:55:29.656Z,19.26
2024-05-09T16:57:57.170Z,19.26
2024-05-09T17:00:36.612Z,18.83
2024-05-09T17:03:14.264Z,18.93
2024-05-09T17:05:42.755Z,18.45
2024-05-09T17:08:09.656Z,18.52
2024-05-09T17:10:36.701Z,18.51
2024-05-09T17:13:04.888Z,18.52
2024-05-09T17:15:33.404Z,18.32
2024-05-09T17:18:01.256Z,18.47
2024-05-09T17:20:33.228Z,18.31
2024-05-09T17:23:03.193Z,18.41
2024-05-09T17:25:29.837Z,18.38
2024-05-09T17:27:56.957Z,18.49
2024-05-09T17:30:32.020Z,18.44
2024-05-09T17:33:05.886Z,18.36
2024-05-09T17:35:32.527Z,18.37
2024-05-09T17:37:59.097Z,18.22
2024-05-09T17:40:32.497Z,18.13
2024-05-09T17:43:02.135Z,17.86
2024-05-09T17:45:28.896Z,17.88
2024-05-09T17:48:00.125Z,17.74
2024-05-09T17:50:31.936Z,17.94
2024-05-09T17:53:05.711Z,17.89
2024-05-09T17:55:32.615Z,17.74
2024-05-09T17:57:59.415Z,17.65
2024-05-09T18:02:55.717Z,17.53
2024-05-09T18:05:25.568Z,17.58
2024-05-09T18:07:52.168Z,17.71
2024-05-09T18:10:25.460Z,17.44
2024-05-09T18:12:56.671Z,17.46
2024-05-09T18:15:23.246Z,17.38
2024-05-09T18:17:50.066Z,17.24
2024-05-09T18:20:24.172Z,17.18
2024-05-09T18:22:59.510Z,17.09
2024-05-09T18:25:26.138Z,17.25
2024-05-09T18:27:52.949Z,17.06
2024-05-09T18:30:28.269Z,16.86
2024-05-09T18:33:07.233Z,16.98
2024-05-09T18:35:35.379Z,16.93
2024-05-09T18:38:05.382Z,16.74
2024-05-09T18:40:37.519Z,16.69
2024-05-09T18:43:07.608Z,16.63
2024-05-09T18:45:36.595Z,16.64
2024-05-09T18:48:04.226Z,16.59
2024-05-09T18:50:35.830Z,16.49
2024-05-09T18:53:06.195Z,16.33
2024-05-09T18:55:33.126Z,16.28
2024-05-09T18:57:59.902Z,16.24
2024-05-09T19:00:33.804Z,16.06
2024-05-09T19:03:04.661Z,16.23
2024-05-09T19:05:32.219Z,16.13
2024-05-09T19:07:59.006Z,15.86
2024-05-09T19:10:28.896Z,15.81
2024-05-09T19:13:00.016Z,15.78
2024-05-09T19:15:26.675Z,15.69
2024-05-09T19:17:53.617Z,15.63
2024-05-09T19:20:28.170Z,15.50
2024-05-09T19:22:58.723Z,15.39
2024-05-09T19:25:25.171Z,15.20
2024-05-09T19:27:51.843Z,15.04
2024-05-09T19:30:25.703Z,14.93
2024-05-09T19:33:04.099Z,14.77
2024-05-09T19:35:30.747Z,14.73
2024-05-09T19:37:57.527Z,14.61
2024-05-09T19:40:30.603Z,14.53
2024-05-09T19:42:59.405Z,14.52
2024-05-09T19:45:31.670Z,14.33
2024-05-09T19:47:59.547Z,14.41
2024-05-09T19:50:32.699Z,14.24
2024-05-09T19:53:07.809Z,14.11
2024-05-09T19:55:34.855Z,14.07
2024-05-09T19:58:08.185Z,14.07
2024-05-09T20:00:40.567Z,14.10
2024-05-09T20:03:18.582Z,14.01
2024-05-09T20:05:46.769Z,13.94
2024-05-09T20:08:13.954Z,13.83
2024-05-09T20:11:04.958Z,13.72
2024-05-09T20:13:31.578Z,13.65
2024-05-09T20:15:58.281Z,13.46
2024-05-09T20:18:24.982Z,13.44
2024-05-09T20:20:54.118Z,13.09
2024-05-09T20:23:20.853Z,13.18
2024-05-09T20:25:47.344Z,13.26
2024-05-09T20:28:13.871Z,13.08
2024-05-09T20:30:40.611Z,13.11
2024-05-09T20:33:08.882Z,13.01
2024-05-09T20:35:37.023Z,12.95
2024-05-09T20:38:04.446Z,12.84
2024-05-09T20:40:36.120Z,12.73
2024-05-09T20:43:08.610Z,12.57
2024-05-09T20:45:35.754Z,12.56
2024-05-09T20:48:02.860Z,12.44
2024-05-09T20:50:37.180Z,12.28
2024-05-09T20:53:14.705Z,12.17
2024-05-09T20:55:43.117Z,12.15
2024-05-09T20:58:10.589Z,12.02
2024-05-09T21:00:43.877Z,12.02
2024-05-09T21:03:13.326Z,12.07
2024-05-09T21:05:43.018Z,12.02
2024-05-09T21:08:09.903Z,12.01
2024-05-09T21:10:37.204Z,11.98
2024-05-09T21:13:04.957Z,11.93
2024-05-09T21:15:32.194Z,11.88
2024-05-09T21:18:01.947Z,11.75
2024-05-09T21:20:31.503Z,11.76
2024-05-09T21:23:00.046Z,11.75
2024-05-09T21:25:26.728Z,11.73
2024-05-09T21:27:53.557Z,11.69
2024-05-09T21:32:50.983Z,11.52
2024-05-09T21:35:18.450Z,11.59
2024-05-09T21:37:45.040Z,11.52
2024-05-09T21:40:16.946Z,11.41
2024-05-09T21:42:50.599Z,11.40
2024-05-09T21:45:18.782Z,11.33
2024-05-09T21:47:45.374Z,11.47
2024-05-09T21:50:22.314Z,11.24
2024-05-09T21:52:53.865Z,11.12
2024-05-09T21:55:20.431Z,11.21
2024-05-09T21:57:46.935Z,11.22
2024-05-09T22:00:20.333Z,11.16
2024-05-09T22:02:51.679Z,11.03
2024-05-09T22:05:18.417Z,11.10
2024-05-09T22:07:45.064Z,11.07
2024-05-09T22:10:19.961Z,11.11
2024-05-09T22:12:52.624Z,11.00
2024-05-09T22:15:19.233Z,10.87
2024-05-09T22:17:45.924Z,10.80
2024-05-09T22:20:21.696Z,10.75
2024-05-09T22:22:52.363Z,10.78
2024-05-09T22:25:19.032Z,10.66
2024-05-09T22:27:45.858Z,10.71
2024-05-09T22:30:20.942Z,10.55
2024-05-09T22:32:50.790Z,10.53
2024-05-09T22:35:17.407Z,10.60
2024-05-09T22:37:43.974Z,10.48
2024-05-09T22:42:40.047Z,10.44
2024-05-09T22:45:07.056Z,10.39
2024-05-09T22:47:33.804Z,10.23
2024-05-09T22:50:00.386Z,10.32
2024-05-09T22:52:26.873Z,10.13
2024-05-09T22:54:53.320Z,10.14
2024-05-09T22:57:20.003Z,10.28
2024-05-09T22:59:46.528Z,10.31
2024-05-09T23:02:13.188Z,10.17
2024-05-09T23:04:39.753Z,10.05
2024-05-09T23:07:07.225Z,9.99
2024-05-09T23:09:33.785Z,9.92
2024-05-09T23:12:00.378Z,9.79
2024-05-09T23:14:26.955Z,9.82
2024-05-09T23:16:53.526Z,9.75
2024-05-09T23:19:20.112Z,9.75
2024-05-09T23:21:46.696Z,9.69
2024-05-09T23:24:13.258Z,9.61
2024-05-09T23:26:44.915Z,9.80
2024-05-09T23:29:11.541Z,9.86
2024-05-09T23:31:40.906Z,9.87
2024-05-09T23:34:07.881Z,9.79
2024-05-09T23:36:34.579Z,9.74
2024-05-09T23:39:01.108Z,9.72
2024-05-09T23:41:27.661Z,9.53
2024-05-09T23:43:54.218Z,9.63
2024-05-09T23:46:20.805Z,9.58
2024-05-09T23:48:47.487Z,9.64
2024-05-09T23:51:14.739Z,9.70
2024-05-09T23:53:45.353Z,9.60
2024-05-09T23:56:15.672Z,9.44
2024-05-09T23:58:42.846Z,9.53
